Air Resources Laboratory banner image
Air Resources Laboratory web site National Oceanic and Atmospheric Administration (NOAA)

ga metar


KABY 250653Z AUTO 19004KT 10SM FEW007 18/17 A3013 RMK AO2 SLP201 T01780167=
KABY 250708Z AUTO 20007KT 10SM BKN005 18/18 A3013 RMK AO2 T01830178=
KAGS 250653Z AUTO 18004KT 10SM CLR 18/15 A3010 RMK AO2 SLP190 T01780150=
KAHN 250651Z AUTO 22004KT 10SM SCT075 19/15 A3006 RMK AO2 SLP174 T01940150=
KAMG 250653Z AUTO 16004KT 10SM CLR 19/17 A3012 RMK AO2 SLP198 T01890167 $=
KATL 250652Z 21010G19KT 10SM FEW021 FEW075 FEW250 20/16 A3006 RMK AO2 SLP173
 T02000161=
KAYS 250655Z AUTO 20005KT 10SM CLR 19/18 A3014 RMK AO2 T01920176=
KBQK 250655Z AUTO 19006KT 10SM OVC090 21/17 A3015 RMK AO2=
KCCO 250655Z AUTO 20005KT 10SM CLR 20/15 A3007 RMK AO2 T01960151=
KCSG 250651Z AUTO 24007KT 10SM SCT017 21/17 A3009 RMK AO2 SLP184 T02060167=
KDNL 250653Z AUTO 18006KT 10SM CLR 19/16 A3010 RMK AO2 SLP190 T01940156=
KDNN 250655Z AUTO 17006G14KT 10SM SCT110 20/15 A3002 RMK AO2=
KFFC 250653Z AUTO 21004KT 10SM CLR 20/15 A3008 RMK AO2 SLP180 T02000150=
KFTY 250653Z 20010KT 10SM CLR 20/16 A3004 RMK AO2 SLP165 T02000156=
KGVL 250653Z AUTO 22008KT 10SM FEW085 19/14 A3007 RMK AO2 SLP168 T01940139 $=
KLGC 250655Z AUTO 19005KT 10SM SCT017 20/19 A3007 RMK AO2 T01960188=
KLHW 250656Z AUTO 00000KT 10SM CLR 18/17 A3012 RMK AO2 SLP202 T01790171 $=
KLSF 250656Z AUTO 20006KT 10SM CLR 20/18 A3008 RMK AO2 SLP189 T02010182=
KLZU 250656Z AUTO 22010KT 10SM CLR 19/14 A3006 RMK AO2 SLP182 T01940139 TSNO=
KMCN 250653Z AUTO 20006KT 10SM CLR 19/15 A3008 RMK AO2 SLP183 T01890150=
KMGE 250656Z AUTO 20008G15KT 10SM CLR 20/15 A3005 RMK AO2 SLP168 T01950145 $=
KMGR 250655Z AUTO 21004KT 10SM OVC004 19/18 A3013 RMK AO2=
KOPN 250655Z AUTO 23004KT 10SM CLR 18/13 A3011 RMK AO2=
KPDK 250653Z AUTO 20012KT 10SM CLR 19/14 A3005 RMK AO2 SLP164 T01940144=
KRMG 250653Z AUTO 20008G20KT 10SM CLR 21/16 A3000 RMK AO2 SLP148 T02110161=
KRYY 250648Z AUTO 21007G17KT 10SM FEW090 19/14 A3005 RMK AO2 SLP896 T01940144=
KSAV 250653Z AUTO 19005KT 10SM CLR 19/18 A3014 RMK AO2 SLP205 T01890178=
KSSI 250653Z AUTO 21007KT 10SM OVC075 22/18 A3014 RMK AO2 SLP208 T02170178=
KSVN 250656Z AUTO 18006KT 10SM CLR 20/18 A3011 RMK AO2 SLP199 T02010182 $=
KVAD 250656Z AUTO 20004KT 10SM CLR 17/17 A3011 RMK AO2 SLP197 T01700170 $=
KVDI 250655Z AUTO 00000KT 10SM CLR 18/17 A3013 RMK AO2=
KVLD 250653Z AUTO 19003KT 3SM BR CLR 17/17 A3013 RMK AO2 SLP208 T01670167=
KVPC 250653Z AUTO 18008KT 10SM CLR 20/15 A3003 RMK AO2 SLP156 T02000150=
KWDR 250655Z AUTO 22004KT 10SM CLR 20/15 A3009 RMK AO1=
KWRB 250656Z 19004KT 10SM CLR 19/14 A3008 RMK AO2A SLP186 T01880143=